Time,TemperatureF,DewpointF,PressureIn,WindDirection,WindDirectionDegrees,WindSpeedMPH,WindSpeedGustMPH,Humidity,HourlyPrecipIn,Conditions,Clouds,dailyrainin,SoftwareType,DateUTC
2013-08-31 00:12:00,58.0,55.0,30.26,SW,220,0.0,0.0,91,0.00,,,0.29,,2013-08-31 07:12:00,
2013-08-31 00:22:00,58.0,55.0,30.25,SW,220,0.0,0.0,91,0.00,,,0.29,,2013-08-31 07:22:00,
2013-08-31 00:52:00,58.0,55.0,30.26,SW,220,0.0,0.0,91,0.00,,,0.29,,2013-08-31 07:52:00,
2013-08-31 01:12:00,58.0,55.0,30.26,SW,220,0.0,0.0,91,0.00,,,0.29,,2013-08-31 08:12:00,
2013-08-31 01:22:00,58.0,55.0,30.26,SW,220,0.0,0.0,91,0.00,,,0.29,,2013-08-31 08:22:00,
2013-08-31 01:52:00,58.0,55.0,30.25,SW,220,0.0,0.0,91,0.00,,,0.29,,2013-08-31 08:52:00,
2013-08-31 02:12:00,58.0,55.0,30.24,SW,220,0.0,0.0,91,0.00,,,0.29,,2013-08-31 09:12:00,
2013-08-31 02:23:00,58.0,55.0,30.24,SW,220,0.0,0.0,91,0.00,,,0.29,,2013-08-31 09:23:00,
2013-08-31 02:53:00,58.0,56.0,30.24,SW,220,0.0,0.0,92,0.00,,,0.29,,2013-08-31 09:53:00,
2013-08-31 03:12:00,57.0,55.0,30.24,SW,220,0.0,0.0,92,0.00,,,0.29,,2013-08-31 10:12:00,
2013-08-31 03:23:00,58.0,56.0,30.24,SW,220,0.0,0.0,92,0.00,,,0.29,,2013-08-31 10:23:00,
2013-08-31 03:43:00,57.0,55.0,30.24,SW,220,0.0,0.0,92,0.00,,,0.29,,2013-08-31 10:43:00,
2013-08-31 03:53:00,57.0,55.0,30.23,SW,220,0.0,0.0,92,0.00,,,0.29,,2013-08-31 10:53:00,
2013-08-31 04:12:00,58.0,56.0,30.23,SW,220,0.0,0.0,92,0.00,,,0.29,,2013-08-31 11:12:00,
2013-08-31 04:21:00,58.0,56.0,30.22,SW,220,0.0,0.0,92,0.00,,,0.29,,2013-08-31 11:21:00,
2013-08-31 04:52:00,58.0,56.0,30.22,SW,220,0.0,0.0,92,0.00,,,0.29,,2013-08-31 11:52:00,
2013-08-31 05:11:00,58.0,56.0,30.22,SW,220,0.0,0.0,92,0.00,,,0.29,,2013-08-31 12:11:00,
2013-08-31 05:21:00,58.0,56.0,30.22,SW,220,0.0,0.0,92,0.00,,,0.29,,2013-08-31 12:21:00,
2013-08-31 05:42:00,58.0,56.0,30.23,SW,220,0.0,0.0,92,0.00,,,0.29,,2013-08-31 12:42:00,
2013-08-31 05:52:00,58.0,56.0,30.23,SW,220,0.0,0.0,92,0.00,,,0.29,,2013-08-31 12:52:00,
2013-08-31 06:11:00,58.0,56.0,30.23,SW,220,0.0,0.0,92,0.00,,,0.29,,2013-08-31 13:11:00,
2013-08-31 06:22:00,58.0,56.0,30.23,SW,220,0.0,0.0,92,0.00,,,0.29,,2013-08-31 13:22:00,
2013-08-31 06:42:00,58.0,56.0,30.23,SW,220,0.0,0.0,92,0.00,,,0.29,,2013-08-31 13:42:00,
2013-08-31 06:52:00,58.0,56.0,30.24,SW,220,0.0,0.0,92,0.00,,,0.29,,2013-08-31 13:52:00,
2013-08-31 07:11:00,57.0,55.0,30.24,SW,220,0.0,0.0,92,0.00,,,0.29,,2013-08-31 14:11:00,
2013-08-31 07:21:00,58.0,56.0,30.24,SW,220,0.0,0.0,92,0.00,,,0.29,,2013-08-31 14:21:00,
2013-08-31 07:52:00,58.0,56.0,30.24,SW,220,0.0,0.0,92,0.00,,,0.29,,2013-08-31 14:52:00,
2013-08-31 08:11:00,59.0,57.0,30.24,SW,220,0.0,0.0,92,0.00,,,0.29,,2013-08-31 15:11:00,
2013-08-31 08:22:00,59.0,57.0,30.24,SW,220,0.0,0.0,92,0.00,,,0.29,,2013-08-31 15:22:00,
2013-08-31 08:55:00,61.0,59.0,30.25,SW,220,0.0,2.0,92,0.00,,,0.29,,2013-08-31 15:55:00,
2013-08-31 09:13:00,61.0,58.0,30.25,SW,220,0.0,1.0,90,0.00,,,0.29,,2013-08-31 16:13:00,
2013-08-31 09:25:00,62.0,59.0,30.25,SW,220,0.0,0.0,90,0.00,,,0.29,,2013-08-31 16:25:00,
2013-08-31 09:43:00,63.0,60.0,30.25,SW,220,0.0,1.0,90,0.00,,,0.29,,2013-08-31 16:43:00,
2013-08-31 09:52:00,64.0,61.0,30.25,SW,219,0.0,3.0,90,0.00,,,0.29,,2013-08-31 16:52:00,
2013-08-31 10:12:00,67.0,57.0,30.25,WNW,289,0.0,1.0,71,0.00,,,0.29,,2013-08-31 17:12:00,
2013-08-31 10:23:00,68.0,57.0,30.25,SSW,199,0.0,6.0,69,0.00,,,0.29,,2013-08-31 17:23:00,
2013-08-31 10:53:00,73.0,59.0,30.25,SW,226,2.0,6.0,62,0.00,,,0.29,,2013-08-31 17:53:00,
2013-08-31 11:12:00,72.0,56.0,30.25,SSW,208,1.0,7.0,57,0.00,,,0.29,,2013-08-31 18:12:00,
2013-08-31 11:21:00,72.0,56.0,30.25,SSW,196,2.0,9.0,58,0.00,,,0.26,,2013-08-31 18:21:00,
2013-08-31 11:52:00,73.0,56.0,30.25,SSW,213,3.0,8.0,55,0.00,,,0.14,,2013-08-31 18:52:00,
2013-08-31 12:12:00,73.0,56.0,30.25,SSW,212,2.0,0.0,56,0.00,,,0.13,,2013-08-31 19:12:00,
2013-08-31 12:21:00,74.0,56.0,30.25,SSW,195,3.0,7.0,54,0.00,,,0.10,,2013-08-31 19:21:00,
2013-08-31 12:52:00,75.0,57.0,30.24,SW,224,2.0,7.0,54,0.00,,,0.06,,2013-08-31 19:52:00,
2013-08-31 13:11:00,76.0,56.0,30.24,SW,226,2.0,7.0,50,0.00,,,0.06,,2013-08-31 20:11:00,
2013-08-31 13:22:00,76.0,57.0,30.24,SSW,195,3.0,10.0,52,0.00,,,0.06,,2013-08-31 20:22:00,
2013-08-31 13:42:00,77.0,58.0,30.23,SSW,192,3.0,10.0,52,0.00,,,0.06,,2013-08-31 20:42:00,
2013-08-31 14:12:00,76.0,53.0,30.23,SSW,209,4.0,10.0,45,0.00,,,0.03,,2013-08-31 21:12:00,
2013-08-31 14:22:00,74.0,53.0,30.22,WSW,241,4.0,10.0,48,0.00,,,0.03,,2013-08-31 21:22:00,
2013-08-31 14:54:00,72.0,52.0,30.22,SW,223,3.0,10.0,50,0.00,,,0.03,,2013-08-31 21:54:00,
2013-08-31 15:13:00,71.0,52.0,30.22,SW,224,2.0,10.0,52,0.00,,,0.03,,2013-08-31 22:13:00,
2013-08-31 15:23:00,69.0,51.0,30.21,SSW,212,4.0,11.0,52,0.00,,,0.03,,2013-08-31 22:23:00,
2013-08-31 15:53:00,68.0,54.0,30.21,South,191,3.0,10.0,61,0.00,,,0.03,,2013-08-31 22:53:00,
2013-08-31 16:22:00,68.0,55.0,30.20,SW,226,3.0,7.0,64,0.00,,,0.03,,2013-08-31 23:22:00,
2013-08-31 16:52:00,67.0,54.0,30.20,WSW,246,2.0,10.0,63,0.00,,,0.01,,2013-08-31 23:52:00,
2013-08-31 17:11:00,67.0,54.0,30.19,SSW,213,3.0,9.0,64,0.00,,,0.01,,2013-09-01 00:11:00,
2013-08-31 17:21:00,67.0,54.0,30.19,WSW,258,2.0,7.0,64,0.00,,,0.01,,2013-09-01 00:21:00,
2013-08-31 17:42:00,67.0,54.0,30.19,SW,219,1.0,5.0,64,0.00,,,0.01,,2013-09-01 00:42:00,
2013-08-31 17:52:00,67.0,54.0,30.19,WSW,258,2.0,7.0,64,0.00,,,0.01,,2013-09-01 00:52:00,
2013-08-31 18:11:00,67.0,54.0,30.20,SSW,213,2.0,10.0,64,0.00,,,0.01,,2013-09-01 01:11:00,
2013-08-31 18:21:00,67.0,55.0,30.19,SW,230,2.0,9.0,65,0.00,,,0.01,,2013-09-01 01:21:00,
2013-08-31 18:42:00,66.0,54.0,30.20,SW,234,1.0,9.0,65,0.00,,,0.01,,2013-09-01 01:42:00,
2013-08-31 18:52:00,66.0,54.0,30.19,South,185,2.0,6.0,66,0.00,,,0.01,,2013-09-01 01:52:00,
2013-08-31 19:12:00,65.0,53.0,30.19,SW,234,2.0,6.0,66,0.00,,,0.01,,2013-09-01 02:12:00,
2013-08-31 19:22:00,64.0,54.0,30.19,SSW,208,1.0,7.0,71,0.00,,,0.01,,2013-09-01 02:22:00,
2013-08-31 19:42:00,63.0,54.0,30.20,SSW,212,0.0,5.0,73,0.00,,,0.01,,2013-09-01 02:42:00,
2013-08-31 19:53:00,62.0,54.0,30.21,SW,233,0.0,4.0,74,0.00,,,0.01,,2013-09-01 02:53:00,
2013-08-31 20:22:00,62.0,55.0,30.22,SW,233,1.0,2.0,78,0.00,,,0.01,,2013-09-01 03:22:00,
2013-08-31 20:54:00,62.0,55.0,30.22,SW,229,0.0,5.0,78,0.00,,,0.01,,2013-09-01 03:54:00,
2013-08-31 21:03:00,-999.0,-99.9,30.22,SW,227,0.0,0.0,-999,-99.99,,,-99.99,,2013-09-01 04:03:00,
2013-08-31 21:24:00,61.0,55.0,30.22,SSW,212,0.0,6.0,80,0.00,,,0.01,,2013-09-01 04:24:00,
2013-08-31 21:54:00,61.0,55.0,30.22,SSW,200,0.0,0.0,81,0.00,,,0.01,,2013-09-01 04:54:00,
2013-08-31 22:22:00,60.0,55.0,30.23,SSW,200,0.0,0.0,84,0.00,,,0.01,,2013-09-01 05:22:00,
2013-08-31 22:52:00,59.0,55.0,30.22,SSW,200,0.0,0.0,86,0.00,,,0.01,,2013-09-01 05:52:00,
2013-08-31 23:22:00,59.0,55.0,30.22,SW,217,0.0,0.0,86,0.00,,,0.01,,2013-09-01 06:22:00,
2013-08-31 23:42:00,59.0,55.0,30.22,SW,217,0.0,0.0,87,0.00,,,0.01,,2013-09-01 06:42:00,
2013-08-31 23:52:00,58.0,54.0,30.22,SW,217,0.0,0.0,88,0.00,,,0.01,,2013-09-01 06:52:00,